createdAt,value
2022-11-30T00:00:19.293Z,8.90
2022-11-30T00:05:13.761Z,12.80
2022-11-30T00:07:40.793Z,11.55
2022-11-30T00:10:08.537Z,10.15
2022-11-30T00:12:35.700Z,10.18
2022-11-30T00:15:02.788Z,9.27
2022-11-30T00:17:29.696Z,11.02
2022-11-30T00:19:56.596Z,9.82
2022-11-30T00:22:23.532Z,12.57
2022-11-30T00:24:50.419Z,10.82
2022-11-30T00:27:17.343Z,11.13
2022-11-30T00:29:44.265Z,8.63
2022-11-30T00:32:11.156Z,10.02
2022-11-30T00:34:38.055Z,9.98
2022-11-30T00:37:04.965Z,8.95
2022-11-30T00:39:35.469Z,9.00
2022-11-30T00:42:02.764Z,8.32
2022-11-30T00:44:29.708Z,10.68
2022-11-30T00:46:56.647Z,8.20
2022-11-30T00:49:23.652Z,9.85
2022-11-30T00:51:50.618Z,7.72
2022-11-30T00:54:17.713Z,8.82
2022-11-30T00:56:44.680Z,8.52
2022-11-30T00:59:11.610Z,8.30
2022-11-30T01:01:38.555Z,8.77
2022-11-30T01:04:05.967Z,8.77
2022-11-30T01:06:32.892Z,9.38
2022-11-30T01:08:59.974Z,8.30
2022-11-30T01:11:29.069Z,8.60
2022-11-30T01:13:57.422Z,8.35
2022-11-30T01:16:27.770Z,7.88
2022-11-30T01:18:55.292Z,9.43
2022-11-30T01:21:24.883Z,8.10
2022-11-30T01:23:51.930Z,7.65
2022-11-30T01:26:19.016Z,8.40
2022-11-30T01:28:50.902Z,8.02
2022-11-30T01:31:17.926Z,9.68
2022-11-30T01:33:49.540Z,7.75
2022-11-30T01:36:19.016Z,8.13
2022-11-30T01:38:48.743Z,7.50
2022-11-30T01:41:19.200Z,7.82
2022-11-30T01:43:54.970Z,8.32
2022-11-30T01:46:27.716Z,8.65
2022-11-30T01:49:06.548Z,8.77
2022-11-30T01:54:13.182Z,8.40
2022-11-30T01:56:48.565Z,7.30
2022-11-30T01:59:16.823Z,8.00
2022-11-30T02:01:45.230Z,7.95
2022-11-30T02:04:22.916Z,8.68
2022-11-30T02:06:49.900Z,8.38
2022-11-30T02:09:19.535Z,8.30
2022-11-30T02:11:47.215Z,8.23
2022-11-30T02:14:24.160Z,7.68
2022-11-30T02:17:02.830Z,7.50
2022-11-30T02:22:50.553Z,7.38
2022-11-30T02:25:52.840Z,7.80
2022-11-30T02:28:41.521Z,7.68
2022-11-30T02:33:39.233Z,7.95
2022-11-30T02:36:08.325Z,7.32
2022-11-30T02:38:35.350Z,7.47
2022-11-30T02:41:02.631Z,8.52
2022-11-30T02:43:32.199Z,7.05
2022-11-30T02:46:32.509Z,8.38
2022-11-30T02:49:09.600Z,9.77
2022-11-30T02:51:39.269Z,7.28
2022-11-30T02:54:06.330Z,7.88
2022-11-30T02:56:33.940Z,8.27
2022-11-30T02:59:00.979Z,7.28
2022-11-30T03:01:28.167Z,7.88
2022-11-30T03:03:55.095Z,7.38
2022-11-30T03:06:22.094Z,7.28
2022-11-30T03:08:48.985Z,7.55
2022-11-30T03:11:15.867Z,7.38
2022-11-30T03:13:42.953Z,7.50
2022-11-30T03:16:11.710Z,7.35
2022-11-30T03:21:10.808Z,9.23
2022-11-30T03:23:38.491Z,7.82
2022-11-30T03:26:06.504Z,7.40
2022-11-30T03:28:33.559Z,7.37
2022-11-30T03:31:00.771Z,7.95
2022-11-30T03:33:27.706Z,7.25
2022-11-30T03:36:13.027Z,7.82
2022-11-30T03:38:40.114Z,7.20
2022-11-30T03:41:17.799Z,8.15
2022-11-30T03:43:46.017Z,7.35
2022-11-30T03:46:14.121Z,7.32
2022-11-30T03:48:41.575Z,9.23
2022-11-30T03:51:09.906Z,7.97
2022-11-30T03:53:37.160Z,7.63
2022-11-30T03:56:06.854Z,7.38
2022-11-30T03:58:34.129Z,7.43
2022-11-30T04:01:06.859Z,6.78
2022-11-30T04:03:34.501Z,7.30
2022-11-30T04:06:01.593Z,7.60
2022-11-30T04:08:28.920Z,8.50
2022-11-30T04:10:57.530Z,7.50
2022-11-30T04:13:25.531Z,7.20
2022-11-30T04:15:53.528Z,7.63
2022-11-30T04:18:21.795Z,8.30
2022-11-30T04:20:52.493Z,8.00
2022-11-30T04:23:19.953Z,7.32
2022-11-30T04:25:48.172Z,7.05
2022-11-30T04:28:16.539Z,6.95
2022-11-30T04:30:43.899Z,7.60
2022-11-30T04:33:11.777Z,7.80
2022-11-30T04:35:48.430Z,7.75
2022-11-30T04:38:15.386Z,6.85
2022-11-30T04:40:43.520Z,8.50
2022-11-30T04:43:11.871Z,7.18
2022-11-30T04:45:39.186Z,7.45
2022-11-30T04:48:07.091Z,6.82
2022-11-30T04:50:34.690Z,7.13
2022-11-30T04:53:01.651Z,7.90
2022-11-30T04:55:28.656Z,6.85
2022-11-30T04:57:55.613Z,6.57
2022-11-30T05:00:23.082Z,7.03
2022-11-30T05:02:52.696Z,7.45
2022-11-30T05:05:20.378Z,6.18
2022-11-30T05:07:51.819Z,6.97
2022-11-30T05:10:19.066Z,6.75
2022-11-30T05:12:46.036Z,6.82
2022-11-30T05:15:12.974Z,7.38
2022-11-30T05:17:39.930Z,6.82
2022-11-30T05:20:07.451Z,8.02
2022-11-30T05:22:35.374Z,6.50
2022-11-30T05:25:02.517Z,8.23
2022-11-30T05:27:47.742Z,6.45
2022-11-30T05:30:14.935Z,6.93
2022-11-30T05:32:42.063Z,7.18
2022-11-30T05:35:09.578Z,8.23
2022-11-30T05:37:36.689Z,7.32
2022-11-30T05:40:03.984Z,7.82
2022-11-30T05:42:30.896Z,7.35
2022-11-30T05:44:57.827Z,6.57
2022-11-30T05:47:25.446Z,6.82
2022-11-30T05:49:52.353Z,6.47
2022-11-30T05:52:19.310Z,6.13
2022-11-30T05:54:46.492Z,6.53
2022-11-30T05:57:13.702Z,7.30
2022-11-30T05:59:40.716Z,7.85
2022-11-30T06:02:07.718Z,6.63
2022-11-30T06:04:35.151Z,7.70
2022-11-30T06:07:02.109Z,6.65
2022-11-30T06:09:29.664Z,11.05
2022-11-30T06:11:56.573Z,6.68
2022-11-30T06:14:23.490Z,6.82
2022-11-30T06:16:50.453Z,7.43
2022-11-30T06:19:17.380Z,7.32
2022-11-30T06:21:44.287Z,6.70
2022-11-30T06:24:11.374Z,6.00
2022-11-30T06:26:38.468Z,6.30
2022-11-30T06:29:05.397Z,9.82
2022-11-30T06:31:32.434Z,6.50
2022-11-30T06:33:59.502Z,8.45
2022-11-30T06:36:30.103Z,10.05
2022-11-30T06:38:59.684Z,11.30
2022-11-30T06:41:27.159Z,8.77
2022-11-30T06:43:54.054Z,11.38
2022-11-30T06:46:22.305Z,11.82
2022-11-30T06:48:52.698Z,13.95
2022-11-30T06:51:19.941Z,11.77
2022-11-30T06:53:47.337Z,9.02
2022-11-30T06:56:15.476Z,8.93
2022-11-30T06:58:42.603Z,7.18
2022-11-30T07:01:12.560Z,10.35
2022-11-30T07:03:40.853Z,7.07
2022-11-30T07:06:10.430Z,10.52
2022-11-30T07:08:38.031Z,11.85
2022-11-30T07:11:05.757Z,10.95
2022-11-30T07:13:32.766Z,7.70
2022-11-30T07:16:00.037Z,10.43
2022-11-30T07:18:31.729Z,9.80
2022-11-30T07:21:01.148Z,7.57
2022-11-30T07:26:22.306Z,8.18
2022-11-30T07:28:55.314Z,10.83
2022-11-30T07:31:30.788Z,7.53
2022-11-30T07:33:59.091Z,7.45
2022-11-30T07:36:27.340Z,12.18
2022-11-30T07:38:54.318Z,9.20
2022-11-30T07:41:21.285Z,6.15
2022-11-30T07:43:48.299Z,6.40
2022-11-30T07:46:16.711Z,6.50
2022-11-30T07:48:45.296Z,8.85
2022-11-30T07:51:18.334Z,6.22
2022-11-30T07:53:45.489Z,8.50
2022-11-30T07:56:14.875Z,11.20
2022-11-30T07:58:42.422Z,10.77
2022-11-30T08:01:13.259Z,6.05
2022-11-30T08:03:40.721Z,7.03
2022-11-30T08:06:13.174Z,8.65
2022-11-30T08:08:42.992Z,5.70
2022-11-30T08:11:13.377Z,7.75
2022-11-30T08:13:40.692Z,7.93
2022-11-30T08:16:10.490Z,6.30
2022-11-30T08:18:37.485Z,7.55
2022-11-30T08:21:06.833Z,5.30
2022-11-30T08:23:37.736Z,9.32
2022-11-30T08:26:09.106Z,6.72
2022-11-30T08:28:36.611Z,7.80
2022-11-30T08:31:09.339Z,14.50
2022-11-30T08:33:37.696Z,10.95
2022-11-30T08:36:17.629Z,12.75
2022-11-30T08:38:45.556Z,6.28
2022-11-30T08:41:14.537Z,12.52
2022-11-30T08:46:49.070Z,5.97
2022-11-30T08:49:20.541Z,7.75
2022-11-30T08:54:47.045Z,7.68
2022-11-30T08:57:16.483Z,7.90
2022-11-30T08:59:43.617Z,6.30
2022-11-30T09:02:47.468Z,5.20
2022-11-30T09:05:14.963Z,10.50
2022-11-30T09:07:42.076Z,8.82
2022-11-30T09:10:09.372Z,8.82
2022-11-30T09:12:37.796Z,10.38
2022-11-30T09:15:06.942Z,6.72
2022-11-30T09:17:35.580Z,7.50
2022-11-30T09:20:02.698Z,5.90
2022-11-30T09:22:29.797Z,5.95
2022-11-30T09:24:56.831Z,5.13
2022-11-30T09:27:25.000Z,5.60
2022-11-30T09:29:51.939Z,5.70
2022-11-30T09:32:18.899Z,7.82
2022-11-30T09:34:46.723Z,6.75
2022-11-30T09:37:13.745Z,6.35
2022-11-30T09:39:40.652Z,5.68
2022-11-30T09:42:26.354Z,8.27
2022-11-30T09:45:05.574Z,6.10
2022-11-30T09:47:44.528Z,7.70
2022-11-30T09:50:16.716Z,6.72
2022-11-30T09:52:48.224Z,7.57
2022-11-30T09:55:27.865Z,8.10
2022-11-30T09:58:00.881Z,5.38
2022-11-30T10:00:28.288Z,8.88
2022-11-30T10:02:59.216Z,7.78
2022-11-30T10:05:40.089Z,6.70
2022-11-30T10:08:38.155Z,6.65
2022-11-30T10:11:14.240Z,8.48
2022-11-30T10:14:25.089Z,5.97
2022-11-30T10:17:28.693Z,7.90
2022-11-30T10:20:05.505Z,7.80
2022-11-30T10:22:46.290Z,5.93
2022-11-30T10:25:21.168Z,13.80
2022-11-30T10:28:12.709Z,9.75
2022-11-30T10:30:49.499Z,22.00
2022-11-30T10:33:19.054Z,11.77
2022-11-30T10:35:50.970Z,12.68
2022-11-30T10:38:37.054Z,14.40
2022-11-30T10:41:21.247Z,8.27
2022-11-30T10:44:17.103Z,9.90
2022-11-30T10:47:07.187Z,8.68
2022-11-30T10:49:37.281Z,7.07
2022-11-30T10:52:08.929Z,16.92
2022-11-30T10:54:37.111Z,10.57
2022-11-30T10:57:05.799Z,7.60
2022-11-30T11:00:07.247Z,5.75
2022-11-30T11:02:41.038Z,12.45
2022-11-30T11:05:21.262Z,15.57
2022-11-30T11:08:02.654Z,6.88
2022-11-30T11:10:37.446Z,5.55
2022-11-30T11:13:05.406Z,5.32
2022-11-30T11:15:34.239Z,6.07
2022-11-30T11:20:43.797Z,5.95
2022-11-30T11:23:29.772Z,7.63
2022-11-30T11:25:57.781Z,5.93
2022-11-30T11:28:25.574Z,6.30
2022-11-30T11:30:57.517Z,5.13
2022-11-30T11:33:29.575Z,7.57
2022-11-30T11:36:14.375Z,8.35
2022-11-30T11:38:44.476Z,4.80
2022-11-30T11:41:17.204Z,9.35
2022-11-30T11:44:02.796Z,5.60
2022-11-30T11:46:32.122Z,5.28
2022-11-30T11:49:02.744Z,5.95
2022-11-30T11:51:36.101Z,4.72
2022-11-30T11:54:08.983Z,5.95
2022-11-30T11:56:37.714Z,6.18
2022-11-30T11:59:10.728Z,5.32
2022-11-30T12:01:50.664Z,5.07
2022-11-30T12:04:26.308Z,4.75
2022-11-30T12:06:55.810Z,6.47
2022-11-30T12:09:49.000Z,5.35
2022-11-30T12:12:16.212Z,6.25
2022-11-30T12:14:43.260Z,4.57
2022-11-30T12:18:32.447Z,4.55
2022-11-30T12:21:15.156Z,8.23
2022-11-30T12:23:49.947Z,5.30
2022-11-30T12:26:46.265Z,4.97
2022-11-30T12:29:44.356Z,6.68
2022-11-30T12:32:23.689Z,5.88
2022-11-30T12:35:09.251Z,4.47
2022-11-30T12:38:01.043Z,8.05
2022-11-30T12:40:46.389Z,5.43
2022-11-30T12:46:03.780Z,7.78
2022-11-30T12:49:12.464Z,13.38
2022-11-30T12:51:48.119Z,10.20
2022-11-30T12:54:24.144Z,5.68
2022-11-30T12:57:12.325Z,17.30
2022-11-30T13:00:22.434Z,6.65
2022-11-30T13:03:33.304Z,8.10
2022-11-30T13:06:05.668Z,11.65
2022-11-30T13:08:40.900Z,8.18
2022-11-30T13:11:17.935Z,9.60
2022-11-30T13:13:51.331Z,12.80
2022-11-30T13:16:21.300Z,7.93
2022-11-30T13:18:50.516Z,8.50
2022-11-30T13:21:31.792Z,6.85
2022-11-30T13:24:29.141Z,5.05
2022-11-30T13:27:34.986Z,9.70
2022-11-30T13:33:00.550Z,10.45
2022-11-30T13:35:30.682Z,9.70
2022-11-30T13:38:36.219Z,10.00
2022-11-30T13:41:01.315Z,9.75
2022-11-30T13:43:48.560Z,13.27
2022-11-30T13:46:21.887Z,5.20
2022-11-30T13:48:49.448Z,7.07
2022-11-30T13:51:37.267Z,13.43
2022-11-30T13:54:42.980Z,14.83
2022-11-30T13:57:25.280Z,10.40
2022-11-30T13:59:54.382Z,11.32
2022-11-30T14:02:33.464Z,13.05
2022-11-30T14:05:19.125Z,8.35
2022-11-30T14:08:07.243Z,10.02
2022-11-30T14:10:36.925Z,7.53
2022-11-30T14:13:10.291Z,11.55
2022-11-30T14:15:41.123Z,13.23
2022-11-30T14:18:08.497Z,17.55
2022-11-30T14:21:01.179Z,21.08
2022-11-30T14:23:40.257Z,19.60
2022-11-30T14:26:11.456Z,12.60
2022-11-30T14:28:53.784Z,12.35
2022-11-30T14:31:26.905Z,13.20
2022-11-30T14:34:17.537Z,21.88
2022-11-30T14:36:49.600Z,23.45
2022-11-30T14:39:31.688Z,15.68
2022-11-30T14:41:59.406Z,9.98
2022-11-30T14:44:26.990Z,13.93
2022-11-30T14:46:54.062Z,15.63
2022-11-30T14:49:25.101Z,15.27
2022-11-30T14:52:15.847Z,13.35
2022-11-30T14:54:51.381Z,11.45
2022-11-30T14:57:34.793Z,15.35
2022-11-30T15:00:01.930Z,11.00
2022-11-30T15:02:37.390Z,16.38
2022-11-30T15:05:07.207Z,16.73
2022-11-30T15:07:35.620Z,13.30
2022-11-30T15:10:12.564Z,7.30
2022-11-30T15:12:41.488Z,10.95
2022-11-30T15:18:06.456Z,12.25
2022-11-30T15:21:00.520Z,8.55
2022-11-30T15:23:27.727Z,9.85
2022-11-30T15:26:12.427Z,10.25
2022-11-30T15:28:44.229Z,13.70
2022-11-30T15:31:15.143Z,10.90
2022-11-30T15:33:45.592Z,7.43
2022-11-30T15:36:31.487Z,5.75
2022-11-30T15:39:04.190Z,12.10
2022-11-30T15:41:33.321Z,16.48
2022-11-30T15:44:02.253Z,11.05
2022-11-30T15:49:27.792Z,6.32
2022-11-30T15:52:09.326Z,7.80
2022-11-30T15:54:52.785Z,15.60
2022-11-30T15:57:20.910Z,7.72
2022-11-30T16:00:23.721Z,10.48
2022-11-30T16:03:14.080Z,11.82
2022-11-30T16:05:53.923Z,11.75
2022-11-30T16:08:21.059Z,12.25
2022-11-30T16:10:48.274Z,9.05
2022-11-30T16:13:18.839Z,11.98
2022-11-30T16:15:51.813Z,11.63
2022-11-30T16:18:25.546Z,13.20
2022-11-30T16:20:58.845Z,12.50
2022-11-30T16:23:27.135Z,10.80
2022-11-30T16:25:54.962Z,7.88
2022-11-30T16:28:23.782Z,8.87
2022-11-30T16:30:51.569Z,6.03
2022-11-30T16:33:24.780Z,7.38
2022-11-30T16:35:56.937Z,13.13
2022-11-30T16:38:27.422Z,6.13
2022-11-30T16:40:56.239Z,7.68
2022-11-30T16:43:26.429Z,9.63
2022-11-30T16:45:54.010Z,6.35
2022-11-30T16:48:21.757Z,4.85
2022-11-30T16:50:50.153Z,13.50
2022-11-30T16:53:17.663Z,11.18
2022-11-30T16:55:44.875Z,15.43
2022-11-30T16:58:13.608Z,13.57
2022-11-30T17:00:41.238Z,10.32
2022-11-30T17:03:25.899Z,8.18
2022-11-30T17:05:53.000Z,15.13
2022-11-30T17:08:20.877Z,8.30
2022-11-30T17:10:52.494Z,7.63
2022-11-30T17:13:20.103Z,7.72
2022-11-30T17:15:48.825Z,9.75
2022-11-30T17:18:16.522Z,14.55
2022-11-30T17:20:43.872Z,9.63
2022-11-30T17:23:11.620Z,9.82
2022-11-30T17:25:39.505Z,7.03
2022-11-30T17:28:07.184Z,24.55
2022-11-30T17:30:35.599Z,11.02
2022-11-30T17:33:02.855Z,7.53
2022-11-30T17:35:30.526Z,7.38
2022-11-30T17:37:57.957Z,13.32
2022-11-30T17:40:25.675Z,6.47
2022-11-30T17:42:53.272Z,8.60
2022-11-30T17:45:20.594Z,11.27
2022-11-30T17:47:51.757Z,7.93
2022-11-30T17:50:21.238Z,8.38
2022-11-30T17:52:49.112Z,13.48
2022-11-30T17:55:16.668Z,10.85
2022-11-30T17:57:44.525Z,16.35
2022-11-30T18:00:12.562Z,9.98
2022-11-30T18:02:40.760Z,15.23
2022-11-30T18:05:09.063Z,19.67
2022-11-30T18:07:39.646Z,24.23
2022-11-30T18:10:08.563Z,15.85
2022-11-30T18:15:06.776Z,15.18
2022-11-30T18:17:35.533Z,9.85
2022-11-30T18:20:03.497Z,13.57
2022-11-30T18:22:31.415Z,11.68
2022-11-30T18:25:02.783Z,16.25
2022-11-30T18:27:30.873Z,12.32
2022-11-30T18:29:59.357Z,17.48
2022-11-30T18:32:26.822Z,13.70
2022-11-30T18:34:57.412Z,11.57
2022-11-30T18:37:25.214Z,23.13
2022-11-30T18:39:52.940Z,17.35
2022-11-30T18:42:23.056Z,15.10
2022-11-30T18:44:52.230Z,16.08
2022-11-30T18:47:19.638Z,16.05
2022-11-30T18:49:47.758Z,14.55
2022-11-30T18:52:15.721Z,15.30
2022-11-30T18:54:43.489Z,17.13
2022-11-30T18:57:14.040Z,16.65
2022-11-30T18:59:44.036Z,12.40
2022-11-30T19:02:12.914Z,11.02
2022-11-30T19:04:41.944Z,11.38
2022-11-30T19:07:09.823Z,14.65
2022-11-30T19:09:37.452Z,11.48
2022-11-30T19:12:05.846Z,12.32
2022-11-30T19:14:33.650Z,16.15
2022-11-30T19:17:01.442Z,6.80
2022-11-30T19:19:29.344Z,13.45
2022-11-30T19:21:58.614Z,12.63
2022-11-30T19:24:26.641Z,7.85
2022-11-30T19:26:56.696Z,7.57
2022-11-30T19:29:24.647Z,10.77
2022-11-30T19:31:52.723Z,19.88
2022-11-30T19:34:20.703Z,16.60
2022-11-30T19:36:52.014Z,9.27
2022-11-30T19:39:20.665Z,8.70
2022-11-30T19:41:48.844Z,12.85
2022-11-30T19:44:17.006Z,12.95
2022-11-30T19:46:45.092Z,11.45
2022-11-30T19:49:14.813Z,9.23
2022-11-30T19:51:44.068Z,9.38
2022-11-30T19:54:11.764Z,10.25
2022-11-30T19:56:41.805Z,15.00
2022-11-30T19:59:10.382Z,12.30
2022-11-30T20:01:38.618Z,7.85
2022-11-30T20:04:07.018Z,5.75
2022-11-30T20:06:37.789Z,9.35
2022-11-30T20:09:07.691Z,7.47
2022-11-30T20:11:37.044Z,6.72
2022-11-30T20:14:09.823Z,7.78
2022-11-30T20:16:37.948Z,8.65
2022-11-30T20:19:07.454Z,11.68
2022-11-30T20:21:36.675Z,10.02
2022-11-30T20:24:07.994Z,8.98
2022-11-30T20:26:38.957Z,9.93
2022-11-30T20:29:12.779Z,7.15
2022-11-30T20:31:42.268Z,7.97
2022-11-30T20:34:11.793Z,7.88
2022-11-30T20:36:39.810Z,6.93
2022-11-30T20:39:08.317Z,7.22
2022-11-30T20:41:36.223Z,8.50
2022-11-30T20:44:04.889Z,9.75
2022-11-30T20:49:18.704Z,8.43
2022-11-30T20:51:47.252Z,11.68
2022-11-30T20:54:16.511Z,6.13
2022-11-30T20:56:44.598Z,7.60
2022-11-30T20:59:17.701Z,4.45
2022-11-30T21:01:47.100Z,10.52
2022-11-30T21:04:14.919Z,6.53
2022-11-30T21:06:45.907Z,9.40
2022-11-30T21:09:18.507Z,5.10
2022-11-30T21:11:48.837Z,7.55
2022-11-30T21:14:19.815Z,14.30
2022-11-30T21:16:46.909Z,5.55
2022-11-30T21:19:14.395Z,3.92
2022-11-30T21:21:41.545Z,4.60
2022-11-30T21:24:11.132Z,5.88
2022-11-30T21:26:40.797Z,8.20
2022-11-30T21:29:14.993Z,3.58
2022-11-30T21:31:43.449Z,4.13
2022-11-30T21:34:10.484Z,4.38
2022-11-30T21:36:37.523Z,5.00
2022-11-30T21:39:07.151Z,9.02
2022-11-30T21:41:36.916Z,4.43
2022-11-30T21:44:04.928Z,4.18
2022-11-30T21:46:32.699Z,3.57
2022-11-30T21:48:59.841Z,8.90
2022-11-30T21:51:28.940Z,5.00
2022-11-30T21:53:58.218Z,7.30
2022-11-30T21:56:28.426Z,3.65
2022-11-30T21:58:56.233Z,5.13
2022-11-30T22:01:31.923Z,3.30
2022-11-30T22:04:00.691Z,4.80
2022-11-30T22:09:07.913Z,5.10
2022-11-30T22:13:12.818Z,5.20
2022-11-30T22:15:39.845Z,8.75
2022-11-30T22:18:06.936Z,4.40
2022-11-30T22:20:33.890Z,6.22
2022-11-30T22:23:00.916Z,5.93
2022-11-30T22:25:27.802Z,3.38
2022-11-30T22:27:54.746Z,5.65
2022-11-30T22:30:21.663Z,6.13
2022-11-30T22:32:49.855Z,4.40
2022-11-30T22:35:16.764Z,4.60
2022-11-30T22:37:43.650Z,4.78
2022-11-30T22:40:11.100Z,5.25
2022-11-30T22:42:38.161Z,3.35
2022-11-30T22:45:05.573Z,3.88
2022-11-30T22:47:32.475Z,5.45
2022-11-30T22:49:59.429Z,3.10
2022-11-30T22:52:48.328Z,3.38
2022-11-30T22:55:13.499Z,4.55
2022-11-30T22:57:40.486Z,2.83
2022-11-30T23:00:08.163Z,4.38
2022-11-30T23:02:35.134Z,3.30
2022-11-30T23:05:02.096Z,3.08
2022-11-30T23:07:32.178Z,6.80
2022-11-30T23:09:59.163Z,3.67
2022-11-30T23:12:57.508Z,4.90
2022-11-30T23:15:12.988Z,4.57
2022-11-30T23:17:39.881Z,3.72
2022-11-30T23:20:07.398Z,5.97
2022-11-30T23:22:36.810Z,3.78
2022-11-30T23:25:04.043Z,3.17
2022-11-30T23:27:31.433Z,3.58
2022-11-30T23:29:59.487Z,5.20
2022-11-30T23:32:26.539Z,5.72
2022-11-30T23:34:53.489Z,3.15
2022-11-30T23:37:20.458Z,2.92
2022-11-30T23:39:47.737Z,3.35
2022-11-30T23:42:14.868Z,5.07
2022-11-30T23:44:41.780Z,3.47
2022-11-30T23:47:08.749Z,6.13
2022-11-30T23:49:35.736Z,3.47
2022-11-30T23:52:02.747Z,3.90
2022-11-30T23:54:29.674Z,4.30
2022-11-30T23:56:56.613Z,4.32
2022-11-30T23:59:23.529Z,7.47
